sensor_id;sensor_type;location;lat;lon;timestamp;P1;durP1;ratioP1;P2;durP2;ratioP2
59054;SDS011;44845;51.444;7.460;2023-03-14T00:01:57;4.45;;;0.90;;
59054;SDS011;44845;51.444;7.460;2023-03-14T00:04:22;3.47;;;1.00;;
59054;SDS011;44845;51.444;7.460;2023-03-14T00:06:47;5.88;;;1.52;;
59054;SDS011;44845;51.444;7.460;2023-03-14T00:09:14;4.00;;;0.98;;
59054;SDS011;44845;51.444;7.460;2023-03-14T00:11:40;4.55;;;1.27;;
59054;SDS011;44845;51.444;7.460;2023-03-14T00:14:05;6.00;;;1.02;;
59054;SDS011;44845;51.444;7.460;2023-03-14T00:16:31;3.83;;;1.05;;
59054;SDS011;44845;51.444;7.460;2023-03-14T00:18:58;3.42;;;0.82;;
59054;SDS011;44845;51.444;7.460;2023-03-14T00:21:24;5.93;;;1.10;;
59054;SDS011;44845;51.444;7.460;2023-03-14T00:23:49;11.00;;;1.52;;
59054;SDS011;44845;51.444;7.460;2023-03-14T00:26:16;4.75;;;0.80;;
59054;SDS011;44845;51.444;7.460;2023-03-14T00:28:43;4.85;;;1.40;;
59054;SDS011;44845;51.444;7.460;2023-03-14T00:31:10;2.50;;;0.70;;
59054;SDS011;44845;51.444;7.460;2023-03-14T00:33:37;2.97;;;0.95;;
59054;SDS011;44845;51.444;7.460;2023-03-14T00:36:03;3.45;;;1.23;;
59054;SDS011;44845;51.444;7.460;2023-03-14T00:38:31;1.80;;;0.90;;
59054;SDS011;44845;51.444;7.460;2023-03-14T00:40:57;3.30;;;1.10;;
59054;SDS011;44845;51.444;7.460;2023-03-14T00:43:23;3.75;;;1.10;;
59054;SDS011;44845;51.444;7.460;2023-03-14T00:45:52;6.07;;;1.23;;
59054;SDS011;44845;51.444;7.460;2023-03-14T00:48:18;3.28;;;1.02;;
59054;SDS011;44845;51.444;7.460;2023-03-14T00:50:44;4.80;;;0.80;;
59054;SDS011;44845;51.444;7.460;2023-03-14T00:53:10;6.80;;;1.42;;
59054;SDS011;44845;51.444;7.460;2023-03-14T00:55:37;3.05;;;0.70;;
59054;SDS011;44845;51.444;7.460;2023-03-14T00:58:05;3.53;;;0.82;;
59054;SDS011;44845;51.444;7.460;2023-03-14T01:00:31;3.60;;;0.85;;
59054;SDS011;44845;51.444;7.460;2023-03-14T01:02:56;5.45;;;1.13;;
59054;SDS011;44845;51.444;7.460;2023-03-14T01:05:22;2.92;;;0.90;;
59054;SDS011;44845;51.444;7.460;2023-03-14T01:07:47;2.45;;;0.70;;
59054;SDS011;44845;51.444;7.460;2023-03-14T01:10:13;4.28;;;0.90;;
59054;SDS011;44845;51.444;7.460;2023-03-14T01:12:38;4.75;;;0.95;;
59054;SDS011;44845;51.444;7.460;2023-03-14T01:15:04;6.78;;;0.90;;
59054;SDS011;44845;51.444;7.460;2023-03-14T01:17:30;3.50;;;0.93;;
59054;SDS011;44845;51.444;7.460;2023-03-14T01:19:55;6.20;;;1.10;;
59054;SDS011;44845;51.444;7.460;2023-03-14T01:22:20;6.00;;;1.20;;
59054;SDS011;44845;51.444;7.460;2023-03-14T01:24:46;3.67;;;0.70;;
59054;SDS011;44845;51.444;7.460;2023-03-14T01:27:12;4.10;;;1.08;;
59054;SDS011;44845;51.444;7.460;2023-03-14T01:29:38;3.50;;;0.77;;
59054;SDS011;44845;51.444;7.460;2023-03-14T01:32:03;6.00;;;0.80;;
59054;SDS011;44845;51.444;7.460;2023-03-14T01:34:29;5.60;;;0.60;;
59054;SDS011;44845;51.444;7.460;2023-03-14T01:36:54;1.13;;;0.30;;
59054;SDS011;44845;51.444;7.460;2023-03-14T01:39:19;1.75;;;0.50;;
59054;SDS011;44845;51.444;7.460;2023-03-14T01:41:45;2.42;;;0.40;;
59054;SDS011;44845;51.444;7.460;2023-03-14T01:44:10;4.40;;;0.40;;
59054;SDS011;44845;51.444;7.460;2023-03-14T01:46:41;3.28;;;0.57;;
59054;SDS011;44845;51.444;7.460;2023-03-14T01:49:47;3.97;;;0.60;;
59054;SDS011;44845;51.444;7.460;2023-03-14T01:52:07;4.47;;;0.80;;
59054;SDS011;44845;51.444;7.460;2023-03-14T01:54:36;2.33;;;0.40;;
59054;SDS011;44845;51.444;7.460;2023-03-14T01:57:11;1.67;;;0.50;;
59054;SDS011;44845;51.444;7.460;2023-03-14T01:59:43;3.00;;;0.52;;
59054;SDS011;44845;51.444;7.460;2023-03-14T02:02:17;3.65;;;0.60;;
59054;SDS011;44845;51.444;7.460;2023-03-14T02:04:43;3.50;;;0.70;;
59054;SDS011;44845;51.444;7.460;2023-03-14T02:07:16;4.53;;;0.68;;
59054;SDS011;44845;51.444;7.460;2023-03-14T02:09:44;2.30;;;0.55;;
59054;SDS011;44845;51.444;7.460;2023-03-14T02:12:11;6.55;;;0.93;;
59054;SDS011;44845;51.444;7.460;2023-03-14T02:14:38;3.50;;;0.65;;
59054;SDS011;44845;51.444;7.460;2023-03-14T02:17:05;4.63;;;0.75;;
59054;SDS011;44845;51.444;7.460;2023-03-14T02:22:20;2.85;;;0.40;;
59054;SDS011;44845;51.444;7.460;2023-03-14T02:27:23;2.40;;;0.70;;
59054;SDS011;44845;51.444;7.460;2023-03-14T02:29:52;5.03;;;0.73;;
59054;SDS011;44845;51.444;7.460;2023-03-14T02:32:22;4.20;;;0.85;;
59054;SDS011;44845;51.444;7.460;2023-03-14T02:34:51;3.50;;;0.50;;
59054;SDS011;44845;51.444;7.460;2023-03-14T02:37:20;3.13;;;0.80;;
59054;SDS011;44845;51.444;7.460;2023-03-14T02:39:48;4.60;;;0.90;;
59054;SDS011;44845;51.444;7.460;2023-03-14T02:42:14;3.42;;;0.50;;
59054;SDS011;44845;51.444;7.460;2023-03-14T02:44:50;3.88;;;0.70;;
59054;SDS011;44845;51.444;7.460;2023-03-14T02:47:20;4.40;;;0.52;;
59054;SDS011;44845;51.444;7.460;2023-03-14T02:49:52;2.78;;;0.63;;
59054;SDS011;44845;51.444;7.460;2023-03-14T02:52:22;4.20;;;0.80;;
59054;SDS011;44845;51.444;7.460;2023-03-14T02:54:48;3.03;;;0.75;;
59054;SDS011;44845;51.444;7.460;2023-03-14T02:57:13;5.47;;;0.85;;
59054;SDS011;44845;51.444;7.460;2023-03-14T02:59:38;5.32;;;0.80;;
59054;SDS011;44845;51.444;7.460;2023-03-14T03:02:04;6.97;;;0.80;;
59054;SDS011;44845;51.444;7.460;2023-03-14T03:04:29;2.97;;;0.70;;
59054;SDS011;44845;51.444;7.460;2023-03-14T03:06:54;4.50;;;0.90;;
59054;SDS011;44845;51.444;7.460;2023-03-14T03:09:20;7.30;;;0.90;;
59054;SDS011;44845;51.444;7.460;2023-03-14T03:11:45;4.88;;;0.77;;
59054;SDS011;44845;51.444;7.460;2023-03-14T03:14:10;6.15;;;0.80;;
59054;SDS011;44845;51.444;7.460;2023-03-14T03:16:36;6.80;;;1.05;;
59054;SDS011;44845;51.444;7.460;2023-03-14T03:19:01;3.08;;;0.47;;
59054;SDS011;44845;51.444;7.460;2023-03-14T03:21:26;5.22;;;1.23;;
59054;SDS011;44845;51.444;7.460;2023-03-14T03:23:52;4.18;;;0.90;;
59054;SDS011;44845;51.444;7.460;2023-03-14T03:26:17;4.55;;;0.70;;
59054;SDS011;44845;51.444;7.460;2023-03-14T03:28:42;5.80;;;0.80;;
59054;SDS011;44845;51.444;7.460;2023-03-14T03:31:09;8.70;;;0.85;;
59054;SDS011;44845;51.444;7.460;2023-03-14T03:33:36;3.25;;;0.90;;
59054;SDS011;44845;51.444;7.460;2023-03-14T03:36:01;3.30;;;0.52;;
59054;SDS011;44845;51.444;7.460;2023-03-14T03:38:27;5.60;;;0.77;;
59054;SDS011;44845;51.444;7.460;2023-03-14T03:40:52;3.05;;;1.08;;
59054;SDS011;44845;51.444;7.460;2023-03-14T03:43:18;3.83;;;0.60;;
59054;SDS011;44845;51.444;7.460;2023-03-14T03:45:43;3.97;;;0.80;;
59054;SDS011;44845;51.444;7.460;2023-03-14T03:48:08;3.10;;;0.52;;
59054;SDS011;44845;51.444;7.460;2023-03-14T03:50:34;4.65;;;0.95;;
59054;SDS011;44845;51.444;7.460;2023-03-14T03:52:59;3.88;;;0.63;;
59054;SDS011;44845;51.444;7.460;2023-03-14T03:55:24;5.43;;;0.70;;
59054;SDS011;44845;51.444;7.460;2023-03-14T03:57:51;4.90;;;0.82;;
59054;SDS011;44845;51.444;7.460;2023-03-14T04:00:17;6.45;;;1.00;;
59054;SDS011;44845;51.444;7.460;2023-03-14T04:02:42;2.95;;;0.93;;
59054;SDS011;44845;51.444;7.460;2023-03-14T04:05:08;2.47;;;0.80;;
59054;SDS011;44845;51.444;7.460;2023-03-14T04:07:33;3.50;;;0.52;;
59054;SDS011;44845;51.444;7.460;2023-03-14T04:09:59;5.95;;;1.02;;
59054;SDS011;44845;51.444;7.460;2023-03-14T04:12:24;6.13;;;0.88;;
59054;SDS011;44845;51.444;7.460;2023-03-14T04:14:49;2.65;;;0.82;;
59054;SDS011;44845;51.444;7.460;2023-03-14T04:17:15;6.00;;;0.63;;
59054;SDS011;44845;51.444;7.460;2023-03-14T04:19:40;2.00;;;0.50;;
59054;SDS011;44845;51.444;7.460;2023-03-14T04:22:07;6.32;;;0.93;;
59054;SDS011;44845;51.444;7.460;2023-03-14T04:24:32;4.15;;;0.80;;
59054;SDS011;44845;51.444;7.460;2023-03-14T04:26:57;3.13;;;0.68;;
59054;SDS011;44845;51.444;7.460;2023-03-14T04:29:23;1.80;;;0.35;;
59054;SDS011;44845;51.444;7.460;2023-03-14T04:31:48;4.53;;;0.40;;
59054;SDS011;44845;51.444;7.460;2023-03-14T04:34:14;3.58;;;0.60;;
59054;SDS011;44845;51.444;7.460;2023-03-14T04:36:39;2.92;;;0.50;;
59054;SDS011;44845;51.444;7.460;2023-03-14T04:39:04;1.40;;;0.30;;
59054;SDS011;44845;51.444;7.460;2023-03-14T04:41:30;5.35;;;0.47;;
59054;SDS011;44845;51.444;7.460;2023-03-14T04:43:55;3.15;;;0.40;;
59054;SDS011;44845;51.444;7.460;2023-03-14T04:46:21;1.23;;;0.38;;
59054;SDS011;44845;51.444;7.460;2023-03-14T04:48:46;2.83;;;0.57;;
59054;SDS011;44845;51.444;7.460;2023-03-14T04:51:11;3.78;;;0.50;;
59054;SDS011;44845;51.444;7.460;2023-03-14T04:53:37;1.50;;;0.32;;
59054;SDS011;44845;51.444;7.460;2023-03-14T04:56:02;3.50;;;0.63;;
59054;SDS011;44845;51.444;7.460;2023-03-14T04:58:28;3.10;;;0.55;;
59054;SDS011;44845;51.444;7.460;2023-03-14T05:00:53;5.55;;;0.88;;
59054;SDS011;44845;51.444;7.460;2023-03-14T05:03:18;3.05;;;1.00;;
59054;SDS011;44845;51.444;7.460;2023-03-14T05:05:44;4.75;;;0.90;;
59054;SDS011;44845;51.444;7.460;2023-03-14T05:08:10;3.72;;;0.80;;
59054;SDS011;44845;51.444;7.460;2023-03-14T05:10:36;4.32;;;0.75;;
59054;SDS011;44845;51.444;7.460;2023-03-14T05:13:01;4.65;;;0.82;;
59054;SDS011;44845;51.444;7.460;2023-03-14T05:15:27;2.63;;;0.73;;
59054;SDS011;44845;51.444;7.460;2023-03-14T05:17:53;5.25;;;1.10;;
59054;SDS011;44845;51.444;7.460;2023-03-14T05:20:19;5.07;;;1.00;;
59054;SDS011;44845;51.444;7.460;2023-03-14T05:22:45;5.30;;;1.30;;
59054;SDS011;44845;51.444;7.460;2023-03-14T05:25:10;6.47;;;0.98;;
59054;SDS011;44845;51.444;7.460;2023-03-14T05:27:35;4.50;;;0.90;;
59054;SDS011;44845;51.444;7.460;2023-03-14T05:30:01;10.43;;;1.30;;
59054;SDS011;44845;51.444;7.460;2023-03-14T05:32:28;5.90;;;1.20;;
59054;SDS011;44845;51.444;7.460;2023-03-14T05:34:53;5.68;;;1.27;;
59054;SDS011;44845;51.444;7.460;2023-03-14T05:37:23;6.43;;;1.20;;
59054;SDS011;44845;51.444;7.460;2023-03-14T05:39:48;6.55;;;0.98;;
59054;SDS011;44845;51.444;7.460;2023-03-14T05:42:13;2.53;;;1.08;;
59054;SDS011;44845;51.444;7.460;2023-03-14T05:44:39;3.70;;;0.85;;
59054;SDS011;44845;51.444;7.460;2023-03-14T05:47:04;2.25;;;0.90;;
59054;SDS011;44845;51.444;7.460;2023-03-14T05:49:29;3.13;;;0.85;;
59054;SDS011;44845;51.444;7.460;2023-03-14T05:51:55;4.88;;;1.35;;
59054;SDS011;44845;51.444;7.460;2023-03-14T05:54:20;3.30;;;1.00;;
59054;SDS011;44845;51.444;7.460;2023-03-14T05:56:45;4.85;;;1.20;;
59054;SDS011;44845;51.444;7.460;2023-03-14T05:59:11;2.22;;;0.77;;
59054;SDS011;44845;51.444;7.460;2023-03-14T06:01:37;3.10;;;0.82;;
59054;SDS011;44845;51.444;7.460;2023-03-14T06:04:02;4.68;;;1.00;;
59054;SDS011;44845;51.444;7.460;2023-03-14T06:06:28;4.75;;;1.13;;
59054;SDS011;44845;51.444;7.460;2023-03-14T06:08:53;3.17;;;0.73;;
59054;SDS011;44845;51.444;7.460;2023-03-14T06:11:18;2.58;;;0.77;;
59054;SDS011;44845;51.444;7.460;2023-03-14T06:13:44;2.78;;;0.73;;
59054;SDS011;44845;51.444;7.460;2023-03-14T06:16:09;3.78;;;0.77;;
59054;SDS011;44845;51.444;7.460;2023-03-14T06:18:35;4.00;;;0.80;;
59054;SDS011;44845;51.444;7.460;2023-03-14T06:21:00;2.30;;;0.70;;
59054;SDS011;44845;51.444;7.460;2023-03-14T06:23:25;2.97;;;0.43;;
59054;SDS011;44845;51.444;7.460;2023-03-14T06:25:51;1.35;;;0.50;;
59054;SDS011;44845;51.444;7.460;2023-03-14T06:28:16;2.13;;;0.77;;
59054;SDS011;44845;51.444;7.460;2023-03-14T06:30:42;3.72;;;0.50;;
59054;SDS011;44845;51.444;7.460;2023-03-14T06:33:07;2.33;;;0.50;;
59054;SDS011;44845;51.444;7.460;2023-03-14T06:35:32;3.50;;;0.60;;
59054;SDS011;44845;51.444;7.460;2023-03-14T06:37:58;2.58;;;0.65;;
59054;SDS011;44845;51.444;7.460;2023-03-14T06:40:23;3.13;;;0.77;;
59054;SDS011;44845;51.444;7.460;2023-03-14T06:42:48;2.85;;;0.50;;
59054;SDS011;44845;51.444;7.460;2023-03-14T06:45:14;2.85;;;0.45;;
59054;SDS011;44845;51.444;7.460;2023-03-14T06:47:39;2.13;;;0.60;;
59054;SDS011;44845;51.444;7.460;2023-03-14T06:50:06;1.90;;;0.50;;
59054;SDS011;44845;51.444;7.460;2023-03-14T06:52:32;0.98;;;0.40;;
59054;SDS011;44845;51.444;7.460;2023-03-14T06:54:58;2.85;;;0.50;;
59054;SDS011;44845;51.444;7.460;2023-03-14T06:57:24;4.47;;;0.55;;
59054;SDS011;44845;51.444;7.460;2023-03-14T06:59:49;5.80;;;0.63;;
59054;SDS011;44845;51.444;7.460;2023-03-14T07:02:14;3.15;;;0.47;;
59054;SDS011;44845;51.444;7.460;2023-03-14T07:04:40;1.25;;;0.52;;
59054;SDS011;44845;51.444;7.460;2023-03-14T07:07:05;1.88;;;0.30;;
59054;SDS011;44845;51.444;7.460;2023-03-14T07:09:31;1.85;;;0.47;;
59054;SDS011;44845;51.444;7.460;2023-03-14T07:11:57;1.35;;;0.30;;
59054;SDS011;44845;51.444;7.460;2023-03-14T07:14:23;1.40;;;0.40;;
59054;SDS011;44845;51.444;7.460;2023-03-14T07:16:48;1.60;;;0.40;;
59054;SDS011;44845;51.444;7.460;2023-03-14T07:19:13;0.98;;;0.22;;
59054;SDS011;44845;51.444;7.460;2023-03-14T07:21:39;1.48;;;0.22;;
59054;SDS011;44845;51.444;7.460;2023-03-14T07:24:04;3.00;;;0.32;;
59054;SDS011;44845;51.444;7.460;2023-03-14T07:26:30;0.40;;;0.40;;
59054;SDS011;44845;51.444;7.460;2023-03-14T07:28:55;1.38;;;0.57;;
59054;SDS011;44845;51.444;7.460;2023-03-14T07:31:21;2.38;;;0.30;;
59054;SDS011;44845;51.444;7.460;2023-03-14T07:33:46;0.70;;;0.32;;
59054;SDS011;44845;51.444;7.460;2023-03-14T07:36:11;2.22;;;0.40;;
59054;SDS011;44845;51.444;7.460;2023-03-14T07:38:37;1.00;;;0.30;;
59054;SDS011;44845;51.444;7.460;2023-03-14T07:41:03;1.55;;;0.20;;
59054;SDS011;44845;51.444;7.460;2023-03-14T07:43:29;0.22;;;0.20;;
59054;SDS011;44845;51.444;7.460;2023-03-14T07:45:55;0.65;;;0.40;;
59054;SDS011;44845;51.444;7.460;2023-03-14T07:48:20;0.95;;;0.38;;
59054;SDS011;44845;51.444;7.460;2023-03-14T07:50:53;0.52;;;0.40;;
59054;SDS011;44845;51.444;7.460;2023-03-14T07:53:20;2.20;;;0.50;;
59054;SDS011;44845;51.444;7.460;2023-03-14T07:55:46;0.70;;;0.38;;
59054;SDS011;44845;51.444;7.460;2023-03-14T07:58:12;3.00;;;0.47;;
59054;SDS011;44845;51.444;7.460;2023-03-14T08:00:38;0.47;;;0.40;;
59054;SDS011;44845;51.444;7.460;2023-03-14T08:03:03;1.48;;;0.50;;
59054;SDS011;44845;51.444;7.460;2023-03-14T08:05:28;0.85;;;0.30;;
59054;SDS011;44845;51.444;7.460;2023-03-14T08:07:54;0.65;;;0.40;;
59054;SDS011;44845;51.444;7.460;2023-03-14T08:10:19;0.50;;;0.50;;
59054;SDS011;44845;51.444;7.460;2023-03-14T08:12:48;0.47;;;0.30;;
59054;SDS011;44845;51.444;7.460;2023-03-14T08:15:21;2.05;;;0.50;;
59054;SDS011;44845;51.444;7.460;2023-03-14T08:17:47;1.50;;;0.30;;
59054;SDS011;44845;51.444;7.460;2023-03-14T08:20:23;1.23;;;0.30;;
59054;SDS011;44845;51.444;7.460;2023-03-14T08:22:50;0.50;;;0.22;;
59054;SDS011;44845;51.444;7.460;2023-03-14T08:25:16;1.02;;;0.50;;
59054;SDS011;44845;51.444;7.460;2023-03-14T08:27:42;1.10;;;0.60;;
59054;SDS011;44845;51.444;7.460;2023-03-14T08:30:11;1.02;;;0.45;;
59054;SDS011;44845;51.444;7.460;2023-03-14T08:32:38;0.40;;;0.40;;
59054;SDS011;44845;51.444;7.460;2023-03-14T08:35:04;1.40;;;0.50;;
59054;SDS011;44845;51.444;7.460;2023-03-14T08:37:31;1.88;;;0.60;;
59054;SDS011;44845;51.444;7.460;2023-03-14T08:39:57;2.17;;;0.50;;
59054;SDS011;44845;51.444;7.460;2023-03-14T08:42:23;3.17;;;0.90;;
59054;SDS011;44845;51.444;7.460;2023-03-14T08:44:48;1.02;;;0.60;;
59054;SDS011;44845;51.444;7.460;2023-03-14T08:47:13;1.48;;;0.60;;
59054;SDS011;44845;51.444;7.460;2023-03-14T08:49:39;1.38;;;0.90;;
59054;SDS011;44845;51.444;7.460;2023-03-14T08:52:04;0.90;;;0.80;;
59054;SDS011;44845;51.444;7.460;2023-03-14T08:54:30;1.55;;;0.68;;
59054;SDS011;44845;51.444;7.460;2023-03-14T08:56:56;1.38;;;0.70;;
59054;SDS011;44845;51.444;7.460;2023-03-14T08:59:22;0.85;;;0.80;;
59054;SDS011;44845;51.444;7.460;2023-03-14T09:01:47;0.90;;;0.75;;
59054;SDS011;44845;51.444;7.460;2023-03-14T09:04:13;0.80;;;0.80;;
59054;SDS011;44845;51.444;7.460;2023-03-14T09:06:38;1.90;;;1.00;;
59054;SDS011;44845;51.444;7.460;2023-03-14T09:09:04;1.20;;;1.10;;
59054;SDS011;44845;51.444;7.460;2023-03-14T09:11:30;1.25;;;1.10;;
59054;SDS011;44845;51.444;7.460;2023-03-14T09:13:55;1.42;;;1.15;;
59054;SDS011;44845;51.444;7.460;2023-03-14T09:16:20;1.67;;;1.25;;
59054;SDS011;44845;51.444;7.460;2023-03-14T09:18:46;1.30;;;1.17;;
59054;SDS011;44845;51.444;7.460;2023-03-14T09:21:11;1.50;;;1.40;;
59054;SDS011;44845;51.444;7.460;2023-03-14T09:23:37;3.20;;;1.05;;
59054;SDS011;44845;51.444;7.460;2023-03-14T09:26:03;1.25;;;1.00;;
59054;SDS011;44845;51.444;7.460;2023-03-14T09:28:29;0.80;;;0.75;;
59054;SDS011;44845;51.444;7.460;2023-03-14T09:30:55;1.15;;;0.80;;
59054;SDS011;44845;51.444;7.460;2023-03-14T09:33:20;3.33;;;1.00;;
59054;SDS011;44845;51.444;7.460;2023-03-14T09:35:46;1.13;;;0.77;;
59054;SDS011;44845;51.444;7.460;2023-03-14T09:38:11;1.35;;;0.90;;
59054;SDS011;44845;51.444;7.460;2023-03-14T09:40:37;1.73;;;0.90;;
59054;SDS011;44845;51.444;7.460;2023-03-14T09:43:03;1.33;;;0.70;;
59054;SDS011;44845;51.444;7.460;2023-03-14T09:45:31;3.00;;;0.68;;
59054;SDS011;44845;51.444;7.460;2023-03-14T09:47:59;0.57;;;0.30;;
59054;SDS011;44845;51.444;7.460;2023-03-14T09:50:30;2.22;;;0.40;;
59054;SDS011;44845;51.444;7.460;2023-03-14T09:55:27;0.52;;;0.30;;
59054;SDS011;44845;51.444;7.460;2023-03-14T09:58:03;0.52;;;0.30;;
59054;SDS011;44845;51.444;7.460;2023-03-14T10:00:35;0.65;;;0.20;;
59054;SDS011;44845;51.444;7.460;2023-03-14T10:05:38;0.90;;;0.30;;
59054;SDS011;44845;51.444;7.460;2023-03-14T10:08:05;0.10;;;0.10;;
59054;SDS011;44845;51.444;7.460;2023-03-14T10:10:31;1.05;;;0.30;;
59054;SDS011;44845;51.444;7.460;2023-03-14T10:12:58;0.30;;;0.30;;
59054;SDS011;44845;51.444;7.460;2023-03-14T10:15:33;0.45;;;0.20;;
59054;SDS011;44845;51.444;7.460;2023-03-14T10:18:00;0.77;;;0.30;;
59054;SDS011;44845;51.444;7.460;2023-03-14T10:20:36;0.28;;;0.28;;
59054;SDS011;44845;51.444;7.460;2023-03-14T10:25:37;0.30;;;0.30;;
59054;SDS011;44845;51.444;7.460;2023-03-14T10:28:04;0.70;;;0.30;;
59054;SDS011;44845;51.444;7.460;2023-03-14T10:30:41;0.35;;;0.30;;
59054;SDS011;44845;51.444;7.460;2023-03-14T10:33:31;0.70;;;0.35;;
59054;SDS011;44845;51.444;7.460;2023-03-14T10:36:03;0.52;;;0.45;;
59054;SDS011;44845;51.444;7.460;2023-03-14T10:38:46;1.10;;;0.40;;
59054;SDS011;44845;51.444;7.460;2023-03-14T10:41:14;0.80;;;0.40;;
59054;SDS011;44845;51.444;7.460;2023-03-14T10:43:42;1.67;;;0.50;;
59054;SDS011;44845;51.444;7.460;2023-03-14T10:46:09;1.35;;;0.60;;
59054;SDS011;44845;51.444;7.460;2023-03-14T10:48:39;1.08;;;0.47;;
59054;SDS011;44845;51.444;7.460;2023-03-14T10:51:09;4.32;;;0.82;;
59054;SDS011;44845;51.444;7.460;2023-03-14T10:53:42;1.67;;;0.73;;
59054;SDS011;44845;51.444;7.460;2023-03-14T10:56:11;0.70;;;0.40;;
59054;SDS011;44845;51.444;7.460;2023-03-14T10:58:44;0.93;;;0.30;;
59054;SDS011;44845;51.444;7.460;2023-03-14T11:01:17;1.33;;;0.57;;
59054;SDS011;44845;51.444;7.460;2023-03-14T11:03:56;0.93;;;0.20;;
59054;SDS011;44845;51.444;7.460;2023-03-14T11:09:07;1.85;;;0.30;;
59054;SDS011;44845;51.444;7.460;2023-03-14T11:11:45;2.33;;;0.50;;
59054;SDS011;44845;51.444;7.460;2023-03-14T11:14:15;0.45;;;0.30;;
59054;SDS011;44845;51.444;7.460;2023-03-14T11:22:12;3.97;;;0.45;;
59054;SDS011;44845;51.444;7.460;2023-03-14T11:24:55;1.42;;;0.57;;
59054;SDS011;44845;51.444;7.460;2023-03-14T11:30:43;1.58;;;0.40;;
59054;SDS011;44845;51.444;7.460;2023-03-14T11:33:28;4.57;;;1.00;;
59054;SDS011;44845;51.444;7.460;2023-03-14T11:38:34;2.70;;;0.73;;
59054;SDS011;44845;51.444;7.460;2023-03-14T11:41:09;1.58;;;0.50;;
59054;SDS011;44845;51.444;7.460;2023-03-14T11:43:39;1.45;;;0.30;;
59054;SDS011;44845;51.444;7.460;2023-03-14T11:51:21;1.85;;;0.10;;
59054;SDS011;44845;51.444;7.460;2023-03-14T11:53:55;2.83;;;0.30;;
59054;SDS011;44845;51.444;7.460;2023-03-14T11:56:46;0.28;;;0.20;;
59054;SDS011;44845;51.444;7.460;2023-03-14T12:01:57;1.77;;;0.50;;
59054;SDS011;44845;51.444;7.460;2023-03-14T12:07:23;1.08;;;0.22;;
59054;SDS011;44845;51.444;7.460;2023-03-14T12:09:58;0.95;;;0.40;;
59054;SDS011;44845;51.444;7.460;2023-03-14T12:12:24;1.23;;;0.25;;
59054;SDS011;44845;51.444;7.460;2023-03-14T12:14:53;1.42;;;0.30;;
59054;SDS011;44845;51.444;7.460;2023-03-14T12:17:23;0.82;;;0.20;;
59054;SDS011;44845;51.444;7.460;2023-03-14T12:20:01;1.92;;;0.47;;
59054;SDS011;44845;51.444;7.460;2023-03-14T12:22:32;1.75;;;0.40;;
59054;SDS011;44845;51.444;7.460;2023-03-14T12:25:12;3.92;;;0.40;;
59054;SDS011;44845;51.444;7.460;2023-03-14T12:27:45;2.25;;;0.30;;
59054;SDS011;44845;51.444;7.460;2023-03-14T12:30:26;1.52;;;0.40;;
59054;SDS011;44845;51.444;7.460;2023-03-14T12:35:35;3.13;;;0.30;;
59054;SDS011;44845;51.444;7.460;2023-03-14T12:38:03;2.25;;;0.60;;
59054;SDS011;44845;51.444;7.460;2023-03-14T12:40:35;4.78;;;0.50;;
59054;SDS011;44845;51.444;7.460;2023-03-14T12:43:25;2.55;;;0.60;;
59054;SDS011;44845;51.444;7.460;2023-03-14T12:48:43;0.47;;;0.30;;
59054;SDS011;44845;51.444;7.460;2023-03-14T12:51:14;3.25;;;0.43;;
59054;SDS011;44845;51.444;7.460;2023-03-14T12:53:51;3.05;;;0.60;;
59054;SDS011;44845;51.444;7.460;2023-03-14T12:59:37;2.92;;;0.60;;
59054;SDS011;44845;51.444;7.460;2023-03-14T13:04:34;1.30;;;0.38;;
59054;SDS011;44845;51.444;7.460;2023-03-14T13:07:11;1.73;;;0.50;;
59054;SDS011;44845;51.444;7.460;2023-03-14T13:13:20;3.60;;;0.73;;
59054;SDS011;44845;51.444;7.460;2023-03-14T13:15:34;3.67;;;0.60;;
59054;SDS011;44845;51.444;7.460;2023-03-14T13:18:17;2.88;;;0.50;;
59054;SDS011;44845;51.444;7.460;2023-03-14T13:20:53;1.88;;;0.50;;
59054;SDS011;44845;51.444;7.460;2023-03-14T13:23:22;4.35;;;0.70;;
59054;SDS011;44845;51.444;7.460;2023-03-14T13:25:50;3.13;;;0.57;;
59054;SDS011;44845;51.444;7.460;2023-03-14T13:28:16;2.80;;;0.47;;
59054;SDS011;44845;51.444;7.460;2023-03-14T13:30:43;6.30;;;0.90;;
59054;SDS011;44845;51.444;7.460;2023-03-14T13:33:19;4.57;;;0.70;;
59054;SDS011;44845;51.444;7.460;2023-03-14T13:35:47;6.35;;;0.93;;
59054;SDS011;44845;51.444;7.460;2023-03-14T13:38:20;6.70;;;1.08;;
59054;SDS011;44845;51.444;7.460;2023-03-14T13:40:48;3.20;;;1.23;;
59054;SDS011;44845;51.444;7.460;2023-03-14T13:45:51;6.45;;;1.00;;
59054;SDS011;44845;51.444;7.460;2023-03-14T13:48:26;8.25;;;1.20;;
59054;SDS011;44845;51.444;7.460;2023-03-14T13:50:55;7.13;;;1.13;;
59054;SDS011;44845;51.444;7.460;2023-03-14T13:53:24;11.18;;;1.67;;
59054;SDS011;44845;51.444;7.460;2023-03-14T13:55:50;9.27;;;1.50;;
59054;SDS011;44845;51.444;7.460;2023-03-14T13:58:24;10.77;;;1.63;;
59054;SDS011;44845;51.444;7.460;2023-03-14T14:00:58;10.90;;;1.23;;
59054;SDS011;44845;51.444;7.460;2023-03-14T14:03:26;8.73;;;1.13;;
59054;SDS011;44845;51.444;7.460;2023-03-14T14:05:54;7.28;;;1.42;;
59054;SDS011;44845;51.444;7.460;2023-03-14T14:08:21;10.25;;;1.60;;
59054;SDS011;44845;51.444;7.460;2023-03-14T14:10:47;9.82;;;1.38;;
59054;SDS011;44845;51.444;7.460;2023-03-14T14:13:14;14.90;;;2.45;;
59054;SDS011;44845;51.444;7.460;2023-03-14T14:15:44;11.50;;;1.80;;
59054;SDS011;44845;51.444;7.460;2023-03-14T14:18:13;13.40;;;2.00;;
59054;SDS011;44845;51.444;7.460;2023-03-14T14:20:44;14.55;;;2.22;;
59054;SDS011;44845;51.444;7.460;2023-03-14T14:23:15;14.00;;;1.95;;
59054;SDS011;44845;51.444;7.460;2023-03-14T14:25:50;8.65;;;1.50;;
59054;SDS011;44845;51.444;7.460;2023-03-14T14:28:26;13.40;;;2.25;;
59054;SDS011;44845;51.444;7.460;2023-03-14T14:30:59;13.35;;;1.60;;
59054;SDS011;44845;51.444;7.460;2023-03-14T14:33:25;9.70;;;2.10;;
59054;SDS011;44845;51.444;7.460;2023-03-14T14:35:54;16.35;;;2.22;;
59054;SDS011;44845;51.444;7.460;2023-03-14T14:38:20;14.52;;;2.10;;
59054;SDS011;44845;51.444;7.460;2023-03-14T14:40:46;20.65;;;2.30;;
59054;SDS011;44845;51.444;7.460;2023-03-14T14:43:19;10.85;;;1.55;;
59054;SDS011;44845;51.444;7.460;2023-03-14T14:45:48;12.35;;;1.90;;
59054;SDS011;44845;51.444;7.460;2023-03-14T14:48:17;13.55;;;1.95;;
59054;SDS011;44845;51.444;7.460;2023-03-14T14:50:55;8.18;;;1.67;;
59054;SDS011;44845;51.444;7.460;2023-03-14T14:53:34;11.20;;;1.73;;
59054;SDS011;44845;51.444;7.460;2023-03-14T14:56:18;17.42;;;2.40;;
59054;SDS011;44845;51.444;7.460;2023-03-14T14:58:48;12.60;;;1.73;;
59054;SDS011;44845;51.444;7.460;2023-03-14T15:03:41;11.23;;;1.90;;
59054;SDS011;44845;51.444;7.460;2023-03-14T15:06:08;11.98;;;1.63;;
59054;SDS011;44845;51.444;7.460;2023-03-14T15:08:35;8.38;;;1.30;;
59054;SDS011;44845;51.444;7.460;2023-03-14T15:11:02;10.45;;;1.35;;
59054;SDS011;44845;51.444;7.460;2023-03-14T15:13:27;12.15;;;1.58;;
59054;SDS011;44845;51.444;7.460;2023-03-14T15:15:52;9.30;;;1.23;;
59054;SDS011;44845;51.444;7.460;2023-03-14T15:18:21;8.27;;;1.50;;
59054;SDS011;44845;51.444;7.460;2023-03-14T15:20:53;7.05;;;1.80;;
59054;SDS011;44845;51.444;7.460;2023-03-14T15:23:19;13.02;;;1.67;;
59054;SDS011;44845;51.444;7.460;2023-03-14T15:25:45;11.13;;;1.50;;
59054;SDS011;44845;51.444;7.460;2023-03-14T15:30:40;6.93;;;1.15;;
59054;SDS011;44845;51.444;7.460;2023-03-14T15:33:05;3.58;;;1.00;;
59054;SDS011;44845;51.444;7.460;2023-03-14T15:35:33;8.23;;;0.90;;
59054;SDS011;44845;51.444;7.460;2023-03-14T15:38:02;9.15;;;1.40;;
59054;SDS011;44845;51.444;7.460;2023-03-14T15:40:28;10.55;;;1.20;;
59054;SDS011;44845;51.444;7.460;2023-03-14T15:42:54;10.77;;;1.60;;
59054;SDS011;44845;51.444;7.460;2023-03-14T15:45:19;9.98;;;1.33;;
59054;SDS011;44845;51.444;7.460;2023-03-14T15:47:44;5.78;;;1.25;;
59054;SDS011;44845;51.444;7.460;2023-03-14T15:50:11;6.90;;;1.25;;